ADDS METAR Data INFO
IDs: Format: Raw Decoded Include TAF

Data at: 1246 UTC 19 Oct 2017

KHWD 191203Z AUTO 28004KT 10SM OVC014 14/09 A3000 RMK AO2 T01390094
KHWD 191154Z AUTO 28003KT 10SM OVC016 14/09 A3000 RMK AO2 SLP167 T01390094 10139 20128 58007
KHWD 191136Z AUTO 28005KT 10SM OVC016 13/09 A3000 RMK AO2 T01330094
KHWD 191054Z AUTO 28006KT 10SM OVC010 13/10 A3000 RMK AO2 CIG 009V014 SLP170 T01330100
KHWD 191008Z AUTO 29007KT 10SM OVC011 13/10 A3001 RMK AO2 CIG 006V013 T01280100
KHWD 190954Z AUTO 28008KT 9SM BKN009 OVC013 13/11 A3001 RMK AO2 CIG 006V011 SLP173 T01280106
KHWD 190916Z AUTO 29007KT 10SM OVC009 13/10 A3002 RMK AO2 T01330100
KHWD 190901Z AUTO 28005KT 10SM OVC010 13/09 A3002 RMK AO2 T01330094
KHWD 190854Z AUTO 30005KT 10SM OVC009 13/09 A3002 RMK AO2 CIG 008V014 SLP174 T01330094 57005
KHWD 190833Z AUTO 29005KT 10SM OVC009 13/09 A3001 RMK AO2 T01330094
KHWD 190754Z AUTO 23005KT 10SM OVC010 13/09 A3002 RMK AO2 SLP174 T01330094 402000072
KHWD 190722Z AUTO 29005KT 10SM OVC011 13/09 A3002 RMK AO2 T01280094
KHWD 190654Z AUTO 29007KT 10SM OVC009 13/09 A3003 RMK AO2 CIG 008V013 SLP179 T01280094
KHWD 190652Z AUTO 29007KT 10SM OVC009 13/09 A3003 RMK AO2 CIG 008V013
KHWD 190612Z AUTO 31004KT 10SM OVC011 13/09 A3004 RMK AO2 CIG 009V013 T01330094
KHWD 190554Z AUTO 32004KT 10SM BKN009 13/09 A3004 RMK AO2 SLP182 T01280094 10156 20122 51009
KHWD 190550Z AUTO 32006KT 10SM BKN009 13/09 A3004 RMK AO2
KHWD 190526Z AUTO 00000KT 10SM BKN010 13/09 A3003 RMK AO2 T01280094
KHWD 190454Z AUTO 06003KT 10SM OVC009 13/09 A3001 RMK AO2 SLP173 T01280094
KHWD 190401Z AUTO 00000KT 10SM BKN008 12/09 A3001 RMK AO2 T01220089
KHWD 190354Z 00000KT 10SM FEW008 BKN010 12/09 A3001 RMK AO2 SLP172 T01220089
KHWD 190254Z 28004KT 10SM BKN010 13/09 A3001 RMK AO2 SLP173 T01280094 53001
KHWD 190251Z 29004KT 10SM BKN010 13/09 A3001 RMK AO2
KHWD 190154Z 29005KT 10SM FEW006 12/09 A3001 RMK AO2 SLP172 T01220089
KHWD 190054Z 30008KT 10SM FEW006 13/08 A3001 RMK AO2 SLP172 T01330083
KHWD 182354Z 31013KT 10SM CLR 16/08 A3001 RMK AO2 SLP172 T01560083 10200 20128 55005
KHWD 182254Z 30012KT 10SM CLR 18/09 A3000 RMK AO2 SLP168 T01780089
KHWD 182154Z 29010KT 10SM CLR 19/09 A3000 RMK AO2 SLP170 T01940089
KHWD 182054Z 28007KT 8SM CLR 18/08 A3002 RMK AO2 SLP177 T01830083 58020
KHWD 181954Z VRB03KT 5SM HZ CLR 17/09 A3005 RMK AO2 SLP185 T01720094
KHWD 181854Z VRB03KT 4SM HZ CLR 16/09 A3008 RMK AO2 SLP195 T01560089
KHWD 181809Z 00000KT 3SM HZ SCT007 13/09 A3008 RMK AO2 T01330089
KHWD 181754Z 30004KT 2SM HZ BKN005 13/09 A3008 RMK AO2 SLP197 T01280089 10128 20072 51010
KHWD 181705Z 29004KT 2SM HZ BKN005 12/08 A3008 RMK AO2 T01220083
KHWD 181654Z COR 25004KT 2SM HZ BKN005 12/08 A3008 RMK AO2 SLP197 T01220083
KHWD 181554Z 00000KT 3SM HZ BKN006 11/05 A3007 RMK AO2 SLP193 T01110050
KHWD 181513Z 00000KT 7SM BKN006 09/02 A3006 RMK AO2 T00890022
KHWD 181506Z 00000KT 7SM SCT010 09/02 A3006 RMK AO2 T00890017
KHWD 181454Z COR 00000KT 10SM SCT030 08/02 A3005 RMK AO2 SLP187 T00830017 51005
KHWD 181354Z 08003KT 10SM FEW030 07/02 A3005 RMK AO2 SLP186 T00720022
KHWD 181254Z AUTO 06003KT 10SM CLR 08/02 A3004 RMK AO2 SLP183 T00830017
KHWD 181154Z AUTO 00000KT 10SM CLR 09/04 A3004 RMK AO2 SLP181 T00940039 10128 20083 56009
KHWD 181054Z AUTO 00000KT 6SM HZ CLR 09/07 A3004 RMK AO2 SLP181 T00940067
KHWD 180954Z AUTO 08003KT 7SM CLR 10/07 A3005 RMK AO2 SLP185 T01000072
KHWD 180854Z AUTO 33004KT 7SM CLR 09/07 A3006 RMK AO2 SLP189 T00940072 58000
KHWD 180754Z AUTO 31003KT 8SM CLR 11/08 A3006 RMK AO2 SLP188 T01060078 402610106
KHWD 180654Z AUTO 31008KT 9SM CLR 11/08 A3007 RMK AO2 SLP191 T01110078
KHWD 180554Z AUTO 33003KT 10SM CLR 12/08 A3007 RMK AO2 SLP190 T01220083 10233 20122 53002
KHWD 180454Z AUTO 00000KT 10SM CLR 13/09 A3005 RMK AO2 SLP186 T01330089
KHWD 180354Z 30004KT 10SM CLR 14/09 A3006 RMK AO2 SLP187 T01390094
KHWD 180254Z 27005KT 10SM CLR 16/09 A3006 RMK AO2 SLP189 T01560089 53008
KHWD 180154Z 31005KT 10SM CLR 16/10 A3005 RMK AO2 SLP186 T01610100
KHWD 180054Z 29005KT 10SM CLR 20/09 A3003 RMK AO2 SLP179 T02000094